sensor_id;sensor_type;location;lat;lon;timestamp;P1;durP1;ratioP1;P2;durP2;ratioP2
76550;SDS011;68768;53.156;18.164;2024-02-28T00:02:03;31.60;;;11.30;;
76550;SDS011;68768;53.156;18.164;2024-02-28T00:04:30;39.50;;;14.30;;
76550;SDS011;68768;53.156;18.164;2024-02-28T00:06:57;38.40;;;14.00;;
76550;SDS011;68768;53.156;18.164;2024-02-28T00:09:24;38.90;;;14.40;;
76550;SDS011;68768;53.156;18.164;2024-02-28T00:11:51;34.40;;;12.80;;
76550;SDS011;68768;53.156;18.164;2024-02-28T00:14:18;38.60;;;13.90;;
76550;SDS011;68768;53.156;18.164;2024-02-28T00:16:45;34.40;;;13.80;;
76550;SDS011;68768;53.156;18.164;2024-02-28T00:19:13;34.80;;;13.20;;
76550;SDS011;68768;53.156;18.164;2024-02-28T00:21:41;31.90;;;12.20;;
76550;SDS011;68768;53.156;18.164;2024-02-28T00:24:08;34.80;;;13.50;;
76550;SDS011;68768;53.156;18.164;2024-02-28T00:26:35;34.40;;;12.80;;
76550;SDS011;68768;53.156;18.164;2024-02-28T00:29:02;35.10;;;13.30;;
76550;SDS011;68768;53.156;18.164;2024-02-28T00:31:29;37.80;;;13.90;;
76550;SDS011;68768;53.156;18.164;2024-02-28T00:33:56;34.60;;;13.30;;
76550;SDS011;68768;53.156;18.164;2024-02-28T00:36:23;33.20;;;12.60;;
76550;SDS011;68768;53.156;18.164;2024-02-28T00:38:50;35.70;;;13.20;;
76550;SDS011;68768;53.156;18.164;2024-02-28T00:41:16;33.60;;;11.70;;
76550;SDS011;68768;53.156;18.164;2024-02-28T00:43:43;33.30;;;11.80;;
76550;SDS011;68768;53.156;18.164;2024-02-28T00:46:10;37.70;;;13.10;;
76550;SDS011;68768;53.156;18.164;2024-02-28T00:48:38;35.20;;;13.20;;
76550;SDS011;68768;53.156;18.164;2024-02-28T00:51:05;34.40;;;13.10;;
76550;SDS011;68768;53.156;18.164;2024-02-28T00:53:34;44.70;;;13.10;;
76550;SDS011;68768;53.156;18.164;2024-02-28T00:56:01;32.20;;;12.80;;
76550;SDS011;68768;53.156;18.164;2024-02-28T00:58:27;45.00;;;14.10;;
76550;SDS011;68768;53.156;18.164;2024-02-28T01:00:56;37.50;;;12.80;;
76550;SDS011;68768;53.156;18.164;2024-02-28T01:03:23;36.90;;;12.00;;
76550;SDS011;68768;53.156;18.164;2024-02-28T01:05:50;37.60;;;12.40;;
76550;SDS011;68768;53.156;18.164;2024-02-28T01:08:17;31.70;;;11.80;;
76550;SDS011;68768;53.156;18.164;2024-02-28T01:10:45;31.60;;;11.70;;
76550;SDS011;68768;53.156;18.164;2024-02-28T01:13:12;39.20;;;12.60;;
76550;SDS011;68768;53.156;18.164;2024-02-28T01:15:40;38.80;;;12.10;;
76550;SDS011;68768;53.156;18.164;2024-02-28T01:18:08;36.30;;;12.40;;
76550;SDS011;68768;53.156;18.164;2024-02-28T01:20:36;39.70;;;12.70;;
76550;SDS011;68768;53.156;18.164;2024-02-28T01:23:03;39.80;;;13.80;;
76550;SDS011;68768;53.156;18.164;2024-02-28T01:25:30;41.20;;;13.10;;
76550;SDS011;68768;53.156;18.164;2024-02-28T01:27:57;38.20;;;13.70;;
76550;SDS011;68768;53.156;18.164;2024-02-28T01:30:27;44.30;;;15.30;;
76550;SDS011;68768;53.156;18.164;2024-02-28T01:32:53;37.00;;;10.90;;
76550;SDS011;68768;53.156;18.164;2024-02-28T01:35:20;38.60;;;12.30;;
76550;SDS011;68768;53.156;18.164;2024-02-28T01:37:48;43.30;;;13.40;;
76550;SDS011;68768;53.156;18.164;2024-02-28T01:40:15;39.40;;;12.00;;
76550;SDS011;68768;53.156;18.164;2024-02-28T01:42:42;41.30;;;13.10;;
76550;SDS011;68768;53.156;18.164;2024-02-28T01:45:13;34.80;;;12.00;;
76550;SDS011;68768;53.156;18.164;2024-02-28T01:47:41;33.80;;;10.40;;
76550;SDS011;68768;53.156;18.164;2024-02-28T01:50:11;31.90;;;11.50;;
76550;SDS011;68768;53.156;18.164;2024-02-28T01:52:38;29.60;;;11.80;;
76550;SDS011;68768;53.156;18.164;2024-02-28T01:55:06;32.80;;;11.80;;
76550;SDS011;68768;53.156;18.164;2024-02-28T01:57:34;28.30;;;10.70;;
76550;SDS011;68768;53.156;18.164;2024-02-28T02:00:04;35.10;;;11.00;;
76550;SDS011;68768;53.156;18.164;2024-02-28T02:05:01;30.60;;;10.90;;
76550;SDS011;68768;53.156;18.164;2024-02-28T02:07:28;36.00;;;9.40;;
76550;SDS011;68768;53.156;18.164;2024-02-28T02:09:56;35.30;;;10.90;;
76550;SDS011;68768;53.156;18.164;2024-02-28T02:12:22;25.50;;;9.50;;
76550;SDS011;68768;53.156;18.164;2024-02-28T02:14:49;28.60;;;10.40;;
76550;SDS011;68768;53.156;18.164;2024-02-28T02:17:16;31.00;;;10.30;;
76550;SDS011;68768;53.156;18.164;2024-02-28T02:19:43;32.50;;;10.00;;
76550;SDS011;68768;53.156;18.164;2024-02-28T02:22:11;32.00;;;9.40;;
76550;SDS011;68768;53.156;18.164;2024-02-28T02:24:40;32.90;;;11.00;;
76550;SDS011;68768;53.156;18.164;2024-02-28T02:27:07;33.20;;;10.50;;
76550;SDS011;68768;53.156;18.164;2024-02-28T02:29:34;42.90;;;11.00;;
76550;SDS011;68768;53.156;18.164;2024-02-28T02:32:01;34.90;;;10.60;;
76550;SDS011;68768;53.156;18.164;2024-02-28T02:34:28;39.50;;;11.40;;
76550;SDS011;68768;53.156;18.164;2024-02-28T02:36:55;38.80;;;12.40;;
76550;SDS011;68768;53.156;18.164;2024-02-28T02:39:21;37.50;;;10.90;;
76550;SDS011;68768;53.156;18.164;2024-02-28T02:41:48;33.00;;;11.10;;
76550;SDS011;68768;53.156;18.164;2024-02-28T02:44:15;38.40;;;11.40;;
76550;SDS011;68768;53.156;18.164;2024-02-28T02:46:42;40.60;;;12.20;;
76550;SDS011;68768;53.156;18.164;2024-02-28T02:49:09;32.80;;;10.90;;
76550;SDS011;68768;53.156;18.164;2024-02-28T02:51:36;34.50;;;10.40;;
76550;SDS011;68768;53.156;18.164;2024-02-28T02:54:03;39.20;;;13.80;;
76550;SDS011;68768;53.156;18.164;2024-02-28T02:56:30;43.40;;;11.60;;
76550;SDS011;68768;53.156;18.164;2024-02-28T02:58:57;35.70;;;11.00;;
76550;SDS011;68768;53.156;18.164;2024-02-28T03:01:24;38.20;;;12.30;;
76550;SDS011;68768;53.156;18.164;2024-02-28T03:03:50;46.00;;;13.60;;
76550;SDS011;68768;53.156;18.164;2024-02-28T03:06:18;39.70;;;13.50;;
76550;SDS011;68768;53.156;18.164;2024-02-28T03:08:45;40.30;;;12.20;;
76550;SDS011;68768;53.156;18.164;2024-02-28T03:11:12;37.70;;;12.40;;
76550;SDS011;68768;53.156;18.164;2024-02-28T03:13:39;40.10;;;12.60;;
76550;SDS011;68768;53.156;18.164;2024-02-28T03:16:06;31.50;;;10.00;;
76550;SDS011;68768;53.156;18.164;2024-02-28T03:18:33;42.30;;;12.70;;
76550;SDS011;68768;53.156;18.164;2024-02-28T03:21:00;43.70;;;12.90;;
76550;SDS011;68768;53.156;18.164;2024-02-28T03:23:28;45.00;;;14.20;;
76550;SDS011;68768;53.156;18.164;2024-02-28T03:25:55;42.60;;;12.90;;
76550;SDS011;68768;53.156;18.164;2024-02-28T03:28:22;41.50;;;13.60;;
76550;SDS011;68768;53.156;18.164;2024-02-28T03:30:49;41.40;;;12.60;;
76550;SDS011;68768;53.156;18.164;2024-02-28T03:33:15;46.50;;;13.20;;
76550;SDS011;68768;53.156;18.164;2024-02-28T03:35:42;43.60;;;13.90;;
76550;SDS011;68768;53.156;18.164;2024-02-28T03:38:09;49.60;;;17.70;;
76550;SDS011;68768;53.156;18.164;2024-02-28T03:40:36;48.30;;;17.40;;
76550;SDS011;68768;53.156;18.164;2024-02-28T03:43:03;45.10;;;16.20;;
76550;SDS011;68768;53.156;18.164;2024-02-28T03:45:30;40.10;;;13.80;;
76550;SDS011;68768;53.156;18.164;2024-02-28T03:47:57;39.30;;;12.70;;
76550;SDS011;68768;53.156;18.164;2024-02-28T03:50:23;34.10;;;13.70;;
76550;SDS011;68768;53.156;18.164;2024-02-28T03:52:50;37.50;;;13.50;;
76550;SDS011;68768;53.156;18.164;2024-02-28T03:55:17;39.20;;;13.70;;
76550;SDS011;68768;53.156;18.164;2024-02-28T03:57:47;35.10;;;12.10;;
76550;SDS011;68768;53.156;18.164;2024-02-28T04:02:42;40.80;;;13.80;;
76550;SDS011;68768;53.156;18.164;2024-02-28T04:05:09;42.40;;;15.60;;
76550;SDS011;68768;53.156;18.164;2024-02-28T04:07:36;45.50;;;14.60;;
76550;SDS011;68768;53.156;18.164;2024-02-28T04:10:03;49.00;;;17.80;;
76550;SDS011;68768;53.156;18.164;2024-02-28T04:12:31;48.40;;;16.50;;
76550;SDS011;68768;53.156;18.164;2024-02-28T04:14:59;49.90;;;15.80;;
76550;SDS011;68768;53.156;18.164;2024-02-28T04:17:26;37.70;;;13.30;;
76550;SDS011;68768;53.156;18.164;2024-02-28T04:19:53;40.70;;;12.80;;
76550;SDS011;68768;53.156;18.164;2024-02-28T04:22:20;42.00;;;12.80;;
76550;SDS011;68768;53.156;18.164;2024-02-28T04:24:47;41.50;;;12.10;;
76550;SDS011;68768;53.156;18.164;2024-02-28T04:27:14;38.10;;;13.40;;
76550;SDS011;68768;53.156;18.164;2024-02-28T04:29:41;35.20;;;11.50;;
76550;SDS011;68768;53.156;18.164;2024-02-28T04:32:08;36.80;;;11.20;;
76550;SDS011;68768;53.156;18.164;2024-02-28T04:34:36;31.70;;;11.40;;
76550;SDS011;68768;53.156;18.164;2024-02-28T04:37:03;43.00;;;14.50;;
76550;SDS011;68768;53.156;18.164;2024-02-28T04:39:30;39.70;;;13.60;;
76550;SDS011;68768;53.156;18.164;2024-02-28T04:41:57;44.00;;;14.70;;
76550;SDS011;68768;53.156;18.164;2024-02-28T04:44:24;38.00;;;12.60;;
76550;SDS011;68768;53.156;18.164;2024-02-28T04:46:51;39.20;;;13.70;;
76550;SDS011;68768;53.156;18.164;2024-02-28T04:49:18;37.70;;;12.60;;
76550;SDS011;68768;53.156;18.164;2024-02-28T04:51:45;36.20;;;12.80;;
76550;SDS011;68768;53.156;18.164;2024-02-28T04:54:11;39.50;;;12.30;;
76550;SDS011;68768;53.156;18.164;2024-02-28T04:56:39;40.80;;;13.10;;
76550;SDS011;68768;53.156;18.164;2024-02-28T04:59:11;31.20;;;10.40;;
76550;SDS011;68768;53.156;18.164;2024-02-28T05:01:38;31.20;;;10.40;;
76550;SDS011;68768;53.156;18.164;2024-02-28T05:04:06;33.30;;;10.90;;
76550;SDS011;68768;53.156;18.164;2024-02-28T05:06:33;35.70;;;11.60;;
76550;SDS011;68768;53.156;18.164;2024-02-28T05:09:00;38.50;;;12.10;;
76550;SDS011;68768;53.156;18.164;2024-02-28T05:11:27;35.90;;;11.80;;
76550;SDS011;68768;53.156;18.164;2024-02-28T05:13:54;32.60;;;11.10;;
76550;SDS011;68768;53.156;18.164;2024-02-28T05:16:21;26.80;;;9.30;;
76550;SDS011;68768;53.156;18.164;2024-02-28T05:18:48;33.50;;;10.40;;
76550;SDS011;68768;53.156;18.164;2024-02-28T05:21:15;33.20;;;11.20;;
76550;SDS011;68768;53.156;18.164;2024-02-28T05:23:42;38.20;;;12.40;;
76550;SDS011;68768;53.156;18.164;2024-02-28T05:26:09;34.90;;;10.60;;
76550;SDS011;68768;53.156;18.164;2024-02-28T05:28:36;35.40;;;12.20;;
76550;SDS011;68768;53.156;18.164;2024-02-28T05:31:22;32.90;;;11.20;;
76550;SDS011;68768;53.156;18.164;2024-02-28T05:33:51;33.80;;;10.70;;
76550;SDS011;68768;53.156;18.164;2024-02-28T05:36:18;25.30;;;9.70;;
76550;SDS011;68768;53.156;18.164;2024-02-28T05:38:45;31.00;;;11.10;;
76550;SDS011;68768;53.156;18.164;2024-02-28T05:41:12;27.40;;;9.60;;
76550;SDS011;68768;53.156;18.164;2024-02-28T05:43:40;29.50;;;10.70;;
76550;SDS011;68768;53.156;18.164;2024-02-28T05:46:07;26.20;;;10.20;;
76550;SDS011;68768;53.156;18.164;2024-02-28T05:48:34;28.80;;;11.30;;
76550;SDS011;68768;53.156;18.164;2024-02-28T05:51:01;29.10;;;11.30;;
76550;SDS011;68768;53.156;18.164;2024-02-28T05:53:29;26.00;;;10.00;;
76550;SDS011;68768;53.156;18.164;2024-02-28T05:56:02;24.50;;;8.90;;
76550;SDS011;68768;53.156;18.164;2024-02-28T05:58:29;27.40;;;10.30;;
76550;SDS011;68768;53.156;18.164;2024-02-28T06:00:56;24.80;;;9.70;;
76550;SDS011;68768;53.156;18.164;2024-02-28T06:03:23;29.80;;;10.30;;
76550;SDS011;68768;53.156;18.164;2024-02-28T06:05:50;26.70;;;10.70;;
76550;SDS011;68768;53.156;18.164;2024-02-28T06:08:18;24.80;;;9.90;;
76550;SDS011;68768;53.156;18.164;2024-02-28T06:10:45;27.30;;;8.90;;
76550;SDS011;68768;53.156;18.164;2024-02-28T06:13:13;25.40;;;9.90;;
76550;SDS011;68768;53.156;18.164;2024-02-28T06:15:40;27.10;;;10.20;;
76550;SDS011;68768;53.156;18.164;2024-02-28T06:18:09;29.40;;;11.40;;
76550;SDS011;68768;53.156;18.164;2024-02-28T06:20:36;24.30;;;8.60;;
76550;SDS011;68768;53.156;18.164;2024-02-28T06:23:04;24.10;;;10.20;;
76550;SDS011;68768;53.156;18.164;2024-02-28T06:25:31;27.70;;;10.00;;
76550;SDS011;68768;53.156;18.164;2024-02-28T06:28:00;30.00;;;10.70;;
76550;SDS011;68768;53.156;18.164;2024-02-28T06:30:29;31.40;;;10.60;;
76550;SDS011;68768;53.156;18.164;2024-02-28T06:32:58;28.60;;;9.80;;
76550;SDS011;68768;53.156;18.164;2024-02-28T06:35:26;32.30;;;10.50;;
76550;SDS011;68768;53.156;18.164;2024-02-28T06:37:53;32.10;;;10.60;;
76550;SDS011;68768;53.156;18.164;2024-02-28T06:40:20;37.90;;;11.30;;
76550;SDS011;68768;53.156;18.164;2024-02-28T06:42:47;32.60;;;11.20;;
76550;SDS011;68768;53.156;18.164;2024-02-28T06:45:14;39.90;;;11.60;;
76550;SDS011;68768;53.156;18.164;2024-02-28T06:47:41;41.40;;;13.10;;
76550;SDS011;68768;53.156;18.164;2024-02-28T06:50:09;34.40;;;10.50;;
76550;SDS011;68768;53.156;18.164;2024-02-28T06:52:36;39.80;;;11.80;;
76550;SDS011;68768;53.156;18.164;2024-02-28T06:55:03;38.50;;;11.90;;
76550;SDS011;68768;53.156;18.164;2024-02-28T06:57:40;37.00;;;11.40;;
76550;SDS011;68768;53.156;18.164;2024-02-28T07:00:08;30.20;;;10.10;;
76550;SDS011;68768;53.156;18.164;2024-02-28T07:02:38;43.10;;;12.50;;
76550;SDS011;68768;53.156;18.164;2024-02-28T07:05:05;36.30;;;10.50;;
76550;SDS011;68768;53.156;18.164;2024-02-28T07:07:33;31.40;;;10.20;;
76550;SDS011;68768;53.156;18.164;2024-02-28T07:10:02;30.10;;;9.90;;
76550;SDS011;68768;53.156;18.164;2024-02-28T07:12:30;28.90;;;10.00;;
76550;SDS011;68768;53.156;18.164;2024-02-28T07:14:58;34.20;;;11.50;;
76550;SDS011;68768;53.156;18.164;2024-02-28T07:17:25;30.50;;;11.10;;
76550;SDS011;68768;53.156;18.164;2024-02-28T07:19:52;33.40;;;10.90;;
76550;SDS011;68768;53.156;18.164;2024-02-28T07:22:19;33.00;;;11.40;;
76550;SDS011;68768;53.156;18.164;2024-02-28T07:24:46;29.20;;;10.60;;
76550;SDS011;68768;53.156;18.164;2024-02-28T07:27:13;33.30;;;10.50;;
76550;SDS011;68768;53.156;18.164;2024-02-28T07:29:39;31.20;;;10.60;;
76550;SDS011;68768;53.156;18.164;2024-02-28T07:32:06;34.20;;;11.10;;
76550;SDS011;68768;53.156;18.164;2024-02-28T07:34:33;36.40;;;11.60;;
76550;SDS011;68768;53.156;18.164;2024-02-28T07:37:00;36.20;;;11.20;;
76550;SDS011;68768;53.156;18.164;2024-02-28T07:39:27;29.40;;;10.70;;
76550;SDS011;68768;53.156;18.164;2024-02-28T07:41:54;35.70;;;12.10;;
76550;SDS011;68768;53.156;18.164;2024-02-28T07:44:21;33.90;;;11.20;;
76550;SDS011;68768;53.156;18.164;2024-02-28T07:46:48;31.50;;;10.30;;
76550;SDS011;68768;53.156;18.164;2024-02-28T07:49:17;33.10;;;10.60;;
76550;SDS011;68768;53.156;18.164;2024-02-28T07:51:44;30.40;;;11.10;;
76550;SDS011;68768;53.156;18.164;2024-02-28T07:54:11;32.50;;;10.40;;
76550;SDS011;68768;53.156;18.164;2024-02-28T07:56:38;36.80;;;11.70;;
76550;SDS011;68768;53.156;18.164;2024-02-28T07:59:05;28.40;;;10.90;;
76550;SDS011;68768;53.156;18.164;2024-02-28T08:01:32;39.80;;;12.50;;
76550;SDS011;68768;53.156;18.164;2024-02-28T08:03:59;41.20;;;13.90;;
76550;SDS011;68768;53.156;18.164;2024-02-28T08:06:26;35.90;;;12.20;;
76550;SDS011;68768;53.156;18.164;2024-02-28T08:08:53;35.60;;;10.80;;
76550;SDS011;68768;53.156;18.164;2024-02-28T08:11:20;41.00;;;12.00;;
76550;SDS011;68768;53.156;18.164;2024-02-28T08:13:47;38.40;;;12.40;;
76550;SDS011;68768;53.156;18.164;2024-02-28T08:16:14;32.70;;;10.80;;
76550;SDS011;68768;53.156;18.164;2024-02-28T08:18:41;25.60;;;9.20;;
76550;SDS011;68768;53.156;18.164;2024-02-28T08:21:08;24.10;;;10.00;;
76550;SDS011;68768;53.156;18.164;2024-02-28T08:23:35;30.80;;;11.80;;
76550;SDS011;68768;53.156;18.164;2024-02-28T08:26:02;35.10;;;11.40;;
76550;SDS011;68768;53.156;18.164;2024-02-28T08:28:30;28.70;;;10.70;;
76550;SDS011;68768;53.156;18.164;2024-02-28T08:30:57;27.80;;;10.70;;
76550;SDS011;68768;53.156;18.164;2024-02-28T08:33:25;33.20;;;11.80;;
76550;SDS011;68768;53.156;18.164;2024-02-28T08:35:52;27.40;;;10.90;;
76550;SDS011;68768;53.156;18.164;2024-02-28T08:38:19;32.20;;;11.50;;
76550;SDS011;68768;53.156;18.164;2024-02-28T08:40:46;22.10;;;9.00;;
76550;SDS011;68768;53.156;18.164;2024-02-28T08:43:12;31.60;;;11.70;;
76550;SDS011;68768;53.156;18.164;2024-02-28T08:45:39;26.20;;;10.00;;
76550;SDS011;68768;53.156;18.164;2024-02-28T08:48:07;27.40;;;10.20;;
76550;SDS011;68768;53.156;18.164;2024-02-28T08:50:34;30.00;;;9.80;;
76550;SDS011;68768;53.156;18.164;2024-02-28T08:53:02;26.30;;;9.20;;
76550;SDS011;68768;53.156;18.164;2024-02-28T08:55:29;28.50;;;10.30;;
76550;SDS011;68768;53.156;18.164;2024-02-28T08:57:57;24.60;;;10.50;;
76550;SDS011;68768;53.156;18.164;2024-02-28T09:00:24;26.30;;;9.80;;
76550;SDS011;68768;53.156;18.164;2024-02-28T09:02:51;23.90;;;9.80;;
76550;SDS011;68768;53.156;18.164;2024-02-28T09:05:18;27.60;;;10.20;;
76550;SDS011;68768;53.156;18.164;2024-02-28T09:07:45;26.70;;;10.20;;
76550;SDS011;68768;53.156;18.164;2024-02-28T09:10:17;24.80;;;10.40;;
76550;SDS011;68768;53.156;18.164;2024-02-28T09:12:50;25.70;;;9.90;;
76550;SDS011;68768;53.156;18.164;2024-02-28T09:15:17;24.00;;;9.50;;
76550;SDS011;68768;53.156;18.164;2024-02-28T09:17:44;34.60;;;10.50;;
76550;SDS011;68768;53.156;18.164;2024-02-28T09:20:11;25.90;;;10.60;;
76550;SDS011;68768;53.156;18.164;2024-02-28T09:22:39;27.00;;;9.90;;
76550;SDS011;68768;53.156;18.164;2024-02-28T09:25:06;22.80;;;9.30;;
76550;SDS011;68768;53.156;18.164;2024-02-28T09:27:35;25.70;;;10.10;;
76550;SDS011;68768;53.156;18.164;2024-02-28T09:30:03;24.80;;;9.40;;
76550;SDS011;68768;53.156;18.164;2024-02-28T09:32:30;23.30;;;9.60;;
76550;SDS011;68768;53.156;18.164;2024-02-28T09:34:57;23.10;;;8.70;;
76550;SDS011;68768;53.156;18.164;2024-02-28T09:37:25;18.90;;;8.00;;
76550;SDS011;68768;53.156;18.164;2024-02-28T09:39:51;21.80;;;9.20;;
76550;SDS011;68768;53.156;18.164;2024-02-28T09:42:19;23.60;;;8.40;;
76550;SDS011;68768;53.156;18.164;2024-02-28T09:44:46;22.30;;;9.30;;
76550;SDS011;68768;53.156;18.164;2024-02-28T09:47:14;21.90;;;8.30;;
76550;SDS011;68768;53.156;18.164;2024-02-28T09:49:44;20.80;;;8.60;;
76550;SDS011;68768;53.156;18.164;2024-02-28T09:52:13;19.00;;;8.10;;
76550;SDS011;68768;53.156;18.164;2024-02-28T09:54:42;19.20;;;8.80;;
76550;SDS011;68768;53.156;18.164;2024-02-28T09:57:11;21.50;;;8.00;;
76550;SDS011;68768;53.156;18.164;2024-02-28T09:59:38;21.30;;;8.10;;
76550;SDS011;68768;53.156;18.164;2024-02-28T10:02:07;19.30;;;7.50;;
76550;SDS011;68768;53.156;18.164;2024-02-28T10:04:37;19.30;;;7.90;;
76550;SDS011;68768;53.156;18.164;2024-02-28T10:07:11;24.00;;;9.30;;
76550;SDS011;68768;53.156;18.164;2024-02-28T10:09:40;21.70;;;8.20;;
76550;SDS011;68768;53.156;18.164;2024-02-28T10:12:07;22.20;;;9.00;;
76550;SDS011;68768;53.156;18.164;2024-02-28T10:14:35;20.50;;;8.90;;
76550;SDS011;68768;53.156;18.164;2024-02-28T10:17:02;18.90;;;8.40;;
76550;SDS011;68768;53.156;18.164;2024-02-28T10:19:28;19.30;;;8.50;;
76550;SDS011;68768;53.156;18.164;2024-02-28T10:21:56;22.80;;;9.50;;
76550;SDS011;68768;53.156;18.164;2024-02-28T10:24:26;24.00;;;9.10;;
76550;SDS011;68768;53.156;18.164;2024-02-28T10:26:53;21.10;;;9.40;;
76550;SDS011;68768;53.156;18.164;2024-02-28T10:29:29;21.70;;;8.70;;
76550;SDS011;68768;53.156;18.164;2024-02-28T10:31:59;22.40;;;9.40;;
76550;SDS011;68768;53.156;18.164;2024-02-28T10:34:26;22.40;;;9.10;;
76550;SDS011;68768;53.156;18.164;2024-02-28T10:36:53;18.00;;;8.50;;
76550;SDS011;68768;53.156;18.164;2024-02-28T10:39:21;19.30;;;9.10;;
76550;SDS011;68768;53.156;18.164;2024-02-28T10:41:48;19.00;;;8.60;;
76550;SDS011;68768;53.156;18.164;2024-02-28T10:44:17;18.00;;;9.00;;
76550;SDS011;68768;53.156;18.164;2024-02-28T10:46:44;24.40;;;9.40;;
76550;SDS011;68768;53.156;18.164;2024-02-28T10:51:43;19.40;;;9.10;;
76550;SDS011;68768;53.156;18.164;2024-02-28T10:54:14;21.50;;;8.70;;
76550;SDS011;68768;53.156;18.164;2024-02-28T10:56:42;17.50;;;7.60;;
76550;SDS011;68768;53.156;18.164;2024-02-28T10:59:10;19.60;;;8.30;;
76550;SDS011;68768;53.156;18.164;2024-02-28T11:01:40;18.70;;;8.30;;
76550;SDS011;68768;53.156;18.164;2024-02-28T11:04:17;19.40;;;8.70;;
76550;SDS011;68768;53.156;18.164;2024-02-28T11:06:48;21.30;;;9.60;;
76550;SDS011;68768;53.156;18.164;2024-02-28T11:09:19;26.00;;;10.00;;
76550;SDS011;68768;53.156;18.164;2024-02-28T11:11:50;21.00;;;9.40;;
76550;SDS011;68768;53.156;18.164;2024-02-28T11:14:18;19.10;;;8.40;;
76550;SDS011;68768;53.156;18.164;2024-02-28T11:16:59;20.80;;;8.70;;
76550;SDS011;68768;53.156;18.164;2024-02-28T11:19:28;18.10;;;8.40;;
76550;SDS011;68768;53.156;18.164;2024-02-28T11:21:57;21.30;;;9.50;;
76550;SDS011;68768;53.156;18.164;2024-02-28T11:24:29;21.80;;;9.20;;
76550;SDS011;68768;53.156;18.164;2024-02-28T11:26:57;16.80;;;7.40;;
76550;SDS011;68768;53.156;18.164;2024-02-28T11:29:25;19.40;;;9.00;;
76550;SDS011;68768;53.156;18.164;2024-02-28T11:31:53;22.70;;;9.10;;
76550;SDS011;68768;53.156;18.164;2024-02-28T11:34:21;18.70;;;9.00;;
76550;SDS011;68768;53.156;18.164;2024-02-28T11:36:48;20.60;;;9.60;;
76550;SDS011;68768;53.156;18.164;2024-02-28T11:39:17;19.00;;;8.50;;
76550;SDS011;68768;53.156;18.164;2024-02-28T11:41:44;17.40;;;8.30;;
76550;SDS011;68768;53.156;18.164;2024-02-28T11:44:15;16.50;;;8.30;;
76550;SDS011;68768;53.156;18.164;2024-02-28T11:46:46;19.20;;;8.60;;
76550;SDS011;68768;53.156;18.164;2024-02-28T11:49:16;17.40;;;8.30;;
76550;SDS011;68768;53.156;18.164;2024-02-28T11:51:44;18.20;;;8.10;;
76550;SDS011;68768;53.156;18.164;2024-02-28T11:54:11;18.60;;;8.80;;
76550;SDS011;68768;53.156;18.164;2024-02-28T11:56:39;15.30;;;7.90;;
76550;SDS011;68768;53.156;18.164;2024-02-28T11:59:07;15.80;;;7.60;;
76550;SDS011;68768;53.156;18.164;2024-02-28T12:01:41;15.10;;;8.10;;
76550;SDS011;68768;53.156;18.164;2024-02-28T12:04:10;17.70;;;8.40;;
76550;SDS011;68768;53.156;18.164;2024-02-28T12:06:37;18.70;;;8.90;;
76550;SDS011;68768;53.156;18.164;2024-02-28T12:09:05;17.40;;;8.20;;
76550;SDS011;68768;53.156;18.164;2024-02-28T12:11:35;17.80;;;9.00;;
76550;SDS011;68768;53.156;18.164;2024-02-28T12:14:03;18.20;;;8.40;;
76550;SDS011;68768;53.156;18.164;2024-02-28T12:16:33;17.40;;;8.50;;
76550;SDS011;68768;53.156;18.164;2024-02-28T12:19:00;18.40;;;8.10;;
76550;SDS011;68768;53.156;18.164;2024-02-28T12:21:29;19.10;;;8.40;;
76550;SDS011;68768;53.156;18.164;2024-02-28T12:23:56;18.80;;;8.80;;
76550;SDS011;68768;53.156;18.164;2024-02-28T12:26:24;16.60;;;8.30;;
76550;SDS011;68768;53.156;18.164;2024-02-28T12:28:51;18.40;;;9.10;;
76550;SDS011;68768;53.156;18.164;2024-02-28T12:31:18;17.30;;;8.50;;
76550;SDS011;68768;53.156;18.164;2024-02-28T12:33:45;17.90;;;8.60;;
76550;SDS011;68768;53.156;18.164;2024-02-28T12:36:12;19.50;;;8.70;;
76550;SDS011;68768;53.156;18.164;2024-02-28T12:38:40;15.60;;;8.70;;
76550;SDS011;68768;53.156;18.164;2024-02-28T12:41:07;17.00;;;8.90;;
76550;SDS011;68768;53.156;18.164;2024-02-28T12:43:34;19.70;;;9.20;;
76550;SDS011;68768;53.156;18.164;2024-02-28T12:46:01;18.80;;;9.10;;
76550;SDS011;68768;53.156;18.164;2024-02-28T12:48:28;21.30;;;9.90;;
76550;SDS011;68768;53.156;18.164;2024-02-28T12:50:56;17.90;;;9.40;;
76550;SDS011;68768;53.156;18.164;2024-02-28T12:53:23;20.40;;;9.40;;
76550;SDS011;68768;53.156;18.164;2024-02-28T12:55:50;18.30;;;8.80;;
76550;SDS011;68768;53.156;18.164;2024-02-28T12:58:17;18.80;;;9.10;;
76550;SDS011;68768;53.156;18.164;2024-02-28T13:00:43;18.30;;;8.80;;
76550;SDS011;68768;53.156;18.164;2024-02-28T13:03:10;16.70;;;8.90;;
76550;SDS011;68768;53.156;18.164;2024-02-28T13:05:37;19.00;;;9.10;;
76550;SDS011;68768;53.156;18.164;2024-02-28T13:08:05;16.50;;;8.20;;
76550;SDS011;68768;53.156;18.164;2024-02-28T13:10:32;20.00;;;9.10;;
76550;SDS011;68768;53.156;18.164;2024-02-28T13:13:02;18.30;;;8.50;;
76550;SDS011;68768;53.156;18.164;2024-02-28T13:15:29;14.70;;;7.80;;
76550;SDS011;68768;53.156;18.164;2024-02-28T13:17:56;17.90;;;9.90;;
76550;SDS011;68768;53.156;18.164;2024-02-28T13:20:23;18.20;;;9.40;;
76550;SDS011;68768;53.156;18.164;2024-02-28T13:22:50;17.30;;;9.00;;
76550;SDS011;68768;53.156;18.164;2024-02-28T13:25:18;18.10;;;9.60;;
76550;SDS011;68768;53.156;18.164;2024-02-28T13:27:46;21.90;;;10.10;;
76550;SDS011;68768;53.156;18.164;2024-02-28T13:30:13;17.40;;;9.10;;
76550;SDS011;68768;53.156;18.164;2024-02-28T13:32:41;17.70;;;8.90;;
76550;SDS011;68768;53.156;18.164;2024-02-28T13:35:09;19.70;;;9.20;;
76550;SDS011;68768;53.156;18.164;2024-02-28T13:37:36;15.90;;;8.60;;
76550;SDS011;68768;53.156;18.164;2024-02-28T13:40:07;17.90;;;8.90;;
76550;SDS011;68768;53.156;18.164;2024-02-28T13:42:35;16.20;;;8.60;;
76550;SDS011;68768;53.156;18.164;2024-02-28T13:45:02;16.20;;;8.50;;
76550;SDS011;68768;53.156;18.164;2024-02-28T13:47:33;16.80;;;8.30;;
76550;SDS011;68768;53.156;18.164;2024-02-28T13:50:01;15.10;;;8.60;;
76550;SDS011;68768;53.156;18.164;2024-02-28T13:52:29;16.30;;;8.40;;
76550;SDS011;68768;53.156;18.164;2024-02-28T13:54:56;17.80;;;8.60;;
76550;SDS011;68768;53.156;18.164;2024-02-28T13:57:23;18.90;;;9.40;;
76550;SDS011;68768;53.156;18.164;2024-02-28T13:59:50;17.80;;;9.20;;
76550;SDS011;68768;53.156;18.164;2024-02-28T14:02:22;15.70;;;8.80;;
76550;SDS011;68768;53.156;18.164;2024-02-28T14:04:53;19.10;;;9.80;;
76550;SDS011;68768;53.156;18.164;2024-02-28T14:07:21;16.80;;;8.60;;
76550;SDS011;68768;53.156;18.164;2024-02-28T14:09:48;17.10;;;8.20;;
76550;SDS011;68768;53.156;18.164;2024-02-28T14:12:14;16.80;;;9.20;;
76550;SDS011;68768;53.156;18.164;2024-02-28T14:14:41;18.30;;;9.00;;
76550;SDS011;68768;53.156;18.164;2024-02-28T14:17:08;19.70;;;10.30;;
76550;SDS011;68768;53.156;18.164;2024-02-28T14:19:35;25.40;;;12.10;;
76550;SDS011;68768;53.156;18.164;2024-02-28T14:22:03;22.20;;;11.20;;
76550;SDS011;68768;53.156;18.164;2024-02-28T14:24:30;19.30;;;9.20;;